createdAt,value
2023-04-21T00:00:54.769Z,24.03
2023-04-21T00:03:44.177Z,25.13
2023-04-21T00:06:33.125Z,27.43
2023-04-21T00:09:21.718Z,26.93
2023-04-21T00:12:10.318Z,27.63
2023-04-21T00:15:00.195Z,24.73
2023-04-21T00:17:48.610Z,27.00
2023-04-21T00:20:37.046Z,26.40
2023-04-21T00:23:25.372Z,26.03
2023-04-21T00:26:13.815Z,26.90
2023-04-21T00:29:05.291Z,27.23
2023-04-21T00:31:55.088Z,26.73
2023-04-21T00:34:43.555Z,25.70
2023-04-21T00:37:33.972Z,27.77
2023-04-21T00:40:22.556Z,27.63
2023-04-21T00:43:10.970Z,27.10
2023-04-21T00:45:59.275Z,28.03
2023-04-21T00:48:48.957Z,24.50
2023-04-21T00:51:38.448Z,24.30
2023-04-21T00:54:27.025Z,25.60
2023-04-21T00:57:15.472Z,26.53
2023-04-21T01:00:05.798Z,27.70
2023-04-21T01:02:54.284Z,25.23
2023-04-21T01:05:44.243Z,25.50
2023-04-21T01:08:33.494Z,28.33
2023-04-21T01:11:21.885Z,27.90
2023-04-21T01:14:10.238Z,24.97
2023-04-21T01:16:59.513Z,26.17
2023-04-21T01:19:47.931Z,26.80
2023-04-21T01:22:38.548Z,24.70
2023-04-21T01:25:28.590Z,25.50
2023-04-21T01:28:22.854Z,26.40
2023-04-21T01:31:11.436Z,25.90
2023-04-21T01:34:04.661Z,27.93
2023-04-21T01:36:53.036Z,26.50
2023-04-21T01:39:44.077Z,32.93
2023-04-21T01:42:34.209Z,28.23
2023-04-21T01:45:22.885Z,27.63
2023-04-21T01:48:11.338Z,27.87
2023-04-21T01:51:01.301Z,28.17
2023-04-21T01:53:49.777Z,28.57
2023-04-21T01:56:40.161Z,25.83
2023-04-21T01:59:28.584Z,28.30
2023-04-21T02:02:16.987Z,29.80
2023-04-21T02:05:06.108Z,29.63
2023-04-21T02:07:54.863Z,29.03
2023-04-21T02:10:44.144Z,27.93
2023-04-21T02:13:35.914Z,27.63
2023-04-21T02:16:26.303Z,31.50
2023-04-21T02:19:14.837Z,33.20
2023-04-21T02:22:04.084Z,31.03
2023-04-21T02:24:52.777Z,28.23
2023-04-21T02:27:41.195Z,29.23
2023-04-21T02:30:31.010Z,29.90
2023-04-21T02:33:19.655Z,28.50
2023-04-21T02:36:10.175Z,31.87
2023-04-21T02:38:58.512Z,29.20
2023-04-21T02:41:46.942Z,30.13
2023-04-21T02:44:35.296Z,31.17
2023-04-21T02:47:25.055Z,28.33
2023-04-21T02:50:14.797Z,29.70
2023-04-21T02:53:03.367Z,29.33
2023-04-21T02:55:51.729Z,30.97
2023-04-21T02:58:40.676Z,29.03
2023-04-21T03:01:29.068Z,29.03
2023-04-21T03:04:19.819Z,30.63
2023-04-21T03:07:12.991Z,30.80
2023-04-21T03:10:01.488Z,33.83
2023-04-21T03:12:51.335Z,30.90
2023-04-21T03:15:39.709Z,29.93
2023-04-21T03:18:28.271Z,31.70
2023-04-21T03:21:18.060Z,31.90
2023-04-21T03:24:07.512Z,32.23
2023-04-21T03:26:57.053Z,30.13
2023-04-21T03:29:45.569Z,33.10
2023-04-21T03:32:34.090Z,36.70
2023-04-21T03:35:22.570Z,31.23
2023-04-21T03:38:12.352Z,31.03
2023-04-21T03:41:00.881Z,30.97
2023-04-21T03:44:14.598Z,28.63
2023-04-21T03:47:03.768Z,33.43
2023-04-21T03:49:52.170Z,31.33
2023-04-21T03:52:41.021Z,31.50
2023-04-21T03:55:30.775Z,30.70
2023-04-21T03:58:19.453Z,34.83
2023-04-21T04:01:08.036Z,31.23
2023-04-21T04:03:56.776Z,33.37
2023-04-21T04:06:45.388Z,31.80
2023-04-21T04:09:33.849Z,32.90
2023-04-21T04:12:23.626Z,31.40
2023-04-21T04:15:12.379Z,30.83
2023-04-21T04:18:01.736Z,30.83
2023-04-21T04:20:50.287Z,31.13
2023-04-21T04:23:38.967Z,33.37
2023-04-21T04:26:27.499Z,32.13
2023-04-21T04:29:18.004Z,33.03
2023-04-21T04:32:06.732Z,34.80
2023-04-21T04:34:55.868Z,33.30
2023-04-21T04:37:45.578Z,33.20
2023-04-21T04:40:34.056Z,33.60
2023-04-21T04:43:22.629Z,32.50
2023-04-21T04:46:13.200Z,32.60
2023-04-21T04:49:01.906Z,32.80
2023-04-21T04:51:50.367Z,35.60
2023-04-21T04:54:38.786Z,33.00
2023-04-21T04:57:27.184Z,33.23
2023-04-21T05:00:16.109Z,34.90
2023-04-21T05:03:06.101Z,33.67
2023-04-21T05:05:54.653Z,36.30
2023-04-21T05:08:43.031Z,35.47
2023-04-21T05:11:31.517Z,34.97
2023-04-21T05:14:20.174Z,32.97
2023-04-21T05:17:09.075Z,32.73
2023-04-21T05:19:58.852Z,35.53
2023-04-21T05:22:47.267Z,31.33
2023-04-21T05:25:35.853Z,35.00
2023-04-21T05:28:24.294Z,33.63
2023-04-21T05:31:12.675Z,33.03
2023-04-21T05:34:01.066Z,34.50
2023-04-21T05:36:52.312Z,34.53
2023-04-21T05:39:40.797Z,33.33
2023-04-21T05:42:29.166Z,32.50
2023-04-21T05:45:17.748Z,35.87
2023-04-21T05:48:06.985Z,33.23
2023-04-21T05:50:55.487Z,32.83
2023-04-21T05:53:47.551Z,33.63
2023-04-21T05:56:36.059Z,36.97
2023-04-21T05:59:26.409Z,35.10
2023-04-21T06:02:14.906Z,32.40
2023-04-21T06:05:03.859Z,33.90
2023-04-21T06:07:52.445Z,32.30
2023-04-21T06:10:42.706Z,33.80
2023-04-21T06:13:31.064Z,33.73
2023-04-21T06:16:19.506Z,31.23
2023-04-21T06:19:07.958Z,32.77
2023-04-21T06:21:57.789Z,29.70
2023-04-21T06:24:46.210Z,30.93
2023-04-21T06:27:36.067Z,31.53
2023-04-21T06:30:24.950Z,30.17
2023-04-21T06:33:13.405Z,29.13
2023-04-21T06:36:01.863Z,28.63
2023-04-21T06:38:50.392Z,31.03
2023-04-21T06:41:38.899Z,32.07
2023-04-21T06:44:29.236Z,29.60
2023-04-21T06:47:17.864Z,29.80
2023-04-21T06:50:07.531Z,29.50
2023-04-21T06:52:56.021Z,27.37
2023-04-21T06:55:44.433Z,27.83
2023-04-21T06:58:32.866Z,26.53
2023-04-21T07:01:24.369Z,30.97
2023-04-21T07:04:12.998Z,27.27
2023-04-21T07:07:03.094Z,25.00
2023-04-21T07:09:51.832Z,25.37
2023-04-21T07:12:40.247Z,27.17
2023-04-21T07:15:28.766Z,27.80
2023-04-21T07:18:18.685Z,23.13
2023-04-21T07:21:07.262Z,24.47
2023-04-21T07:23:55.656Z,26.70
2023-04-21T07:26:44.120Z,25.93
2023-04-21T07:29:32.589Z,25.60
2023-04-21T07:32:21.198Z,25.10
2023-04-21T07:35:11.403Z,26.20
2023-04-21T07:37:59.868Z,24.27
2023-04-21T07:40:48.282Z,27.37
2023-04-21T07:43:36.819Z,28.40
2023-04-21T07:46:30.306Z,21.40
2023-04-21T07:49:18.893Z,23.33
2023-04-21T07:52:08.805Z,24.00
2023-04-21T07:54:57.411Z,24.67
2023-04-21T07:57:45.881Z,24.00
2023-04-21T08:00:34.569Z,24.03
2023-04-21T08:03:24.457Z,25.40
2023-04-21T08:06:13.344Z,19.93
2023-04-21T08:09:03.530Z,22.90
2023-04-21T08:11:52.065Z,23.90
2023-04-21T08:14:40.996Z,23.67
2023-04-21T08:17:29.502Z,21.37
2023-04-21T08:20:18.039Z,26.50
2023-04-21T08:23:06.562Z,22.17
2023-04-21T08:25:56.455Z,21.20
2023-04-21T08:28:44.891Z,23.93
2023-04-21T08:31:33.905Z,22.27
2023-04-21T08:34:24.192Z,26.60
2023-04-21T08:37:14.237Z,21.97
2023-04-21T08:40:02.666Z,26.13
2023-04-21T08:42:52.456Z,23.77
2023-04-21T08:45:41.315Z,21.93
2023-04-21T08:48:31.055Z,22.40
2023-04-21T08:51:24.389Z,23.23
2023-04-21T08:54:13.404Z,29.93
2023-04-21T08:57:14.164Z,22.10
2023-04-21T09:00:07.918Z,22.90
2023-04-21T09:03:01.155Z,24.87
2023-04-21T09:05:59.108Z,26.00
2023-04-21T09:08:56.751Z,21.33
2023-04-21T09:12:03.533Z,25.63
2023-04-21T09:14:52.423Z,23.37
2023-04-21T09:17:42.274Z,22.67
2023-04-21T09:20:31.394Z,22.23
2023-04-21T09:23:19.883Z,23.43
2023-04-21T09:26:08.485Z,21.93
2023-04-21T09:28:56.885Z,23.27
2023-04-21T09:31:45.886Z,23.27
2023-04-21T09:34:42.752Z,21.33
2023-04-21T09:37:33.822Z,23.10
2023-04-21T09:40:22.275Z,24.90
2023-04-21T09:43:11.864Z,23.63
2023-04-21T09:46:01.693Z,23.50
2023-04-21T09:48:50.145Z,24.27
2023-04-21T09:52:09.706Z,23.47
2023-04-21T09:54:52.095Z,23.93
2023-04-21T09:57:43.000Z,24.30
2023-04-21T10:00:31.435Z,23.53
2023-04-21T10:03:21.569Z,24.43
2023-04-21T10:06:10.378Z,22.90
2023-04-21T10:09:00.459Z,23.00
2023-04-21T10:11:48.928Z,24.03
2023-04-21T10:14:37.436Z,23.63
2023-04-21T10:17:27.409Z,22.63
2023-04-21T10:20:16.776Z,22.77
2023-04-21T10:23:05.287Z,23.07
2023-04-21T10:25:55.391Z,22.97
2023-04-21T10:28:46.670Z,24.80
2023-04-21T10:32:00.405Z,22.97
2023-04-21T10:34:49.107Z,22.40
2023-04-21T10:37:37.816Z,23.10
2023-04-21T10:43:49.605Z,24.90
2023-04-21T10:46:39.728Z,22.70
2023-04-21T10:49:30.329Z,22.80
2023-04-21T10:52:20.979Z,22.07
2023-04-21T10:55:12.740Z,24.20
2023-04-21T10:58:03.697Z,25.50
2023-04-21T11:00:56.515Z,21.93
2023-04-21T11:03:45.162Z,22.20
2023-04-21T11:06:33.808Z,22.40
2023-04-21T11:09:22.233Z,21.63
2023-04-21T11:12:11.710Z,21.70
2023-04-21T11:15:00.238Z,22.57
2023-04-21T11:17:51.298Z,22.23
2023-04-21T11:20:41.614Z,21.90
2023-04-21T11:23:30.206Z,22.20
2023-04-21T11:26:19.306Z,20.70
2023-04-21T11:29:09.297Z,21.00
2023-04-21T11:31:59.099Z,21.43
2023-04-21T11:34:48.975Z,20.90
2023-04-21T11:37:37.904Z,20.87
2023-04-21T11:40:26.301Z,20.10
2023-04-21T11:43:14.785Z,20.03
2023-04-21T11:46:13.994Z,20.73
2023-04-21T11:49:04.450Z,19.80
2023-04-21T11:51:54.259Z,19.43
2023-04-21T11:54:45.651Z,19.60
2023-04-21T11:57:35.166Z,20.67
2023-04-21T12:00:23.635Z,19.03
2023-04-21T12:03:12.617Z,19.03
2023-04-21T12:06:01.212Z,19.37
2023-04-21T12:08:55.682Z,20.83
2023-04-21T12:11:44.203Z,19.30
2023-04-21T12:14:34.704Z,18.90
2023-04-21T12:17:23.233Z,18.70
2023-04-21T12:20:12.855Z,19.00
2023-04-21T12:23:01.299Z,18.73
2023-04-21T12:25:51.532Z,17.80
2023-04-21T12:28:40.275Z,17.53
2023-04-21T12:31:28.889Z,17.77
2023-04-21T12:34:17.388Z,18.27
2023-04-21T12:37:06.163Z,17.70
2023-04-21T12:39:54.606Z,18.03
2023-04-21T12:42:44.424Z,15.80
2023-04-21T12:45:33.159Z,18.30
2023-04-21T12:48:21.713Z,17.07
2023-04-21T12:51:10.730Z,16.90
2023-04-21T12:53:59.142Z,18.20
2023-04-21T12:56:47.574Z,17.20
2023-04-21T12:59:37.308Z,16.70
2023-04-21T13:02:26.119Z,16.53
2023-04-21T13:05:15.112Z,17.20
2023-04-21T13:08:03.512Z,17.27
2023-04-21T13:10:53.405Z,15.87
2023-04-21T13:13:44.649Z,16.33
2023-04-21T13:16:34.479Z,16.27
2023-04-21T13:19:23.011Z,15.93
2023-04-21T13:22:11.458Z,16.37
2023-04-21T13:24:59.881Z,15.97
2023-04-21T13:27:48.350Z,17.70
2023-04-21T13:30:36.984Z,16.87
2023-04-21T13:33:26.963Z,16.13
2023-04-21T13:36:15.558Z,16.97
2023-04-21T13:39:04.687Z,16.20
2023-04-21T13:41:54.364Z,15.90
2023-04-21T13:44:43.001Z,15.40
2023-04-21T13:47:34.487Z,17.70
2023-04-21T13:50:24.372Z,15.40
2023-04-21T13:53:14.104Z,17.30
2023-04-21T13:56:02.596Z,15.20
2023-04-21T13:58:51.100Z,14.63
2023-04-21T14:01:39.555Z,16.23
2023-04-21T14:04:28.210Z,16.03
2023-04-21T14:07:19.522Z,15.93
2023-04-21T14:10:09.120Z,14.83
2023-04-21T14:12:57.560Z,15.30
2023-04-21T14:15:46.089Z,15.20
2023-04-21T14:18:34.587Z,16.37
2023-04-21T14:21:23.015Z,14.33
2023-04-21T14:24:12.870Z,15.47
2023-04-21T14:27:01.296Z,14.20
2023-04-21T14:29:49.760Z,14.33
2023-04-21T14:32:38.626Z,14.00
2023-04-21T14:35:27.323Z,17.53
2023-04-21T14:38:15.751Z,14.40
2023-04-21T14:41:05.926Z,14.27
2023-04-21T14:43:56.596Z,13.03
2023-04-21T14:46:53.324Z,14.00
2023-04-21T14:49:54.676Z,13.40
2023-04-21T14:52:43.899Z,13.10
2023-04-21T14:55:32.309Z,12.90
2023-04-21T14:58:22.166Z,12.70
2023-04-21T15:01:11.327Z,12.47
2023-04-21T15:04:00.672Z,11.53
2023-04-21T15:06:49.451Z,12.03
2023-04-21T15:09:39.083Z,12.07
2023-04-21T15:12:27.561Z,11.53
2023-04-21T15:15:17.403Z,11.93
2023-04-21T15:18:05.914Z,11.77
2023-04-21T15:20:54.354Z,11.47
2023-04-21T15:23:42.878Z,11.10
2023-04-21T15:26:31.426Z,11.50
2023-04-21T15:29:19.838Z,10.93
2023-04-21T15:32:09.702Z,10.50
2023-04-21T15:34:58.100Z,11.00
2023-04-21T15:37:46.537Z,11.87
2023-04-21T15:40:37.518Z,10.20
2023-04-21T15:43:30.209Z,10.90
2023-04-21T15:46:18.709Z,11.70
2023-04-21T15:49:08.520Z,11.10
2023-04-21T15:51:57.240Z,11.57
2023-04-21T15:54:47.100Z,11.37
2023-04-21T15:57:35.552Z,11.87
2023-04-21T16:00:24.630Z,9.77
2023-04-21T16:03:13.292Z,11.77
2023-04-21T16:06:03.523Z,10.90
2023-04-21T16:08:52.371Z,11.03
2023-04-21T16:11:40.955Z,10.40
2023-04-21T16:14:39.326Z,10.53
2023-04-21T16:17:36.593Z,10.50
2023-04-21T16:20:25.887Z,10.10
2023-04-21T16:23:16.534Z,10.87
2023-04-21T16:26:05.962Z,10.70
2023-04-21T16:28:55.553Z,10.90
2023-04-21T16:31:44.017Z,11.83
2023-04-21T16:34:32.567Z,13.43
2023-04-21T16:37:20.948Z,12.23
2023-04-21T16:40:11.979Z,11.80
2023-04-21T16:43:00.550Z,12.97
2023-04-21T16:45:49.177Z,12.20
2023-04-21T16:48:37.846Z,12.63
2023-04-21T16:51:28.503Z,12.10
2023-04-21T16:54:17.045Z,12.67
2023-04-21T16:57:07.111Z,12.80
2023-04-21T16:59:55.634Z,13.10
2023-04-21T17:02:44.294Z,13.70
2023-04-21T17:05:32.815Z,13.70
2023-04-21T17:08:21.302Z,12.83
2023-04-21T17:11:09.693Z,13.80
2023-04-21T17:13:59.580Z,12.60
2023-04-21T17:16:48.168Z,14.20
2023-04-21T17:19:36.841Z,13.13
2023-04-21T17:22:25.244Z,13.83
2023-04-21T17:25:13.769Z,14.20
2023-04-21T17:28:02.430Z,12.90
2023-04-21T17:31:00.240Z,13.83
2023-04-21T17:33:57.247Z,15.07
2023-04-21T17:36:45.748Z,14.50
2023-04-21T17:39:34.120Z,14.93
2023-04-21T17:42:22.739Z,15.60
2023-04-21T17:45:12.029Z,14.67
2023-04-21T17:48:01.913Z,15.53
2023-04-21T17:50:50.486Z,15.03
2023-04-21T17:53:39.180Z,14.10
2023-04-21T17:56:27.823Z,17.83
2023-04-21T17:59:16.448Z,14.47
2023-04-21T18:02:05.337Z,16.20
2023-04-21T18:04:55.425Z,14.90
2023-04-21T18:07:43.906Z,15.80
2023-04-21T18:10:32.426Z,15.57
2023-04-21T18:13:21.012Z,14.67
2023-04-21T18:16:09.642Z,15.33
2023-04-21T18:18:58.080Z,16.67
2023-04-21T18:21:47.976Z,16.10
2023-04-21T18:24:36.722Z,16.67
2023-04-21T18:27:25.361Z,16.37
2023-04-21T18:30:14.132Z,16.80
2023-04-21T18:33:02.709Z,16.53
2023-04-21T18:35:51.332Z,16.30
2023-04-21T18:38:41.166Z,17.60
2023-04-21T18:41:29.764Z,16.27
2023-04-21T18:44:18.262Z,18.30
2023-04-21T18:47:06.751Z,16.00
2023-04-21T18:49:55.421Z,17.17
2023-04-21T18:52:43.908Z,19.90
2023-04-21T18:55:33.914Z,17.47
2023-04-21T18:58:22.623Z,16.80
2023-04-21T19:01:11.296Z,17.27
2023-04-21T19:04:00.023Z,17.80
2023-04-21T19:06:49.482Z,18.33
2023-04-21T19:09:37.940Z,18.87
2023-04-21T19:12:28.874Z,18.73
2023-04-21T19:15:17.355Z,17.80
2023-04-21T19:18:06.553Z,16.13
2023-04-21T19:20:55.140Z,17.93
2023-04-21T19:23:43.533Z,18.70
2023-04-21T19:26:31.998Z,19.37
2023-04-21T19:29:21.770Z,18.50
2023-04-21T19:32:10.188Z,17.93
2023-04-21T19:34:58.622Z,19.07
2023-04-21T19:37:47.126Z,18.93
2023-04-21T19:40:35.521Z,18.57
2023-04-21T19:43:24.069Z,17.90
2023-04-21T19:46:14.051Z,19.60
2023-04-21T19:49:02.684Z,18.70
2023-04-21T19:51:51.732Z,19.37
2023-04-21T19:54:40.451Z,19.20
2023-04-21T19:57:29.024Z,18.70
2023-04-21T20:00:18.217Z,19.10
2023-04-21T20:03:08.952Z,19.70
2023-04-21T20:05:57.610Z,19.30
2023-04-21T20:08:46.171Z,19.70
2023-04-21T20:11:34.806Z,19.97
2023-04-21T20:14:23.356Z,19.60
2023-04-21T20:17:11.737Z,20.30
2023-04-21T20:20:02.026Z,18.87
2023-04-21T20:22:50.494Z,19.53
2023-04-21T20:25:39.164Z,20.43
2023-04-21T20:28:28.257Z,18.77
2023-04-21T20:31:18.010Z,20.53
2023-04-21T20:34:06.768Z,21.00
2023-04-21T20:36:56.931Z,19.67
2023-04-21T20:39:46.760Z,21.30
2023-04-21T20:42:35.201Z,20.00
2023-04-21T20:45:23.823Z,20.23
2023-04-21T20:48:12.265Z,20.20
2023-04-21T20:51:01.150Z,20.63
2023-04-21T20:53:50.945Z,22.60
2023-04-21T20:56:39.628Z,20.33
2023-04-21T20:59:28.068Z,19.67
2023-04-21T21:02:16.593Z,21.50
2023-04-21T21:05:05.422Z,21.57
2023-04-21T21:07:54.123Z,21.70
2023-04-21T21:10:43.870Z,21.90
2023-04-21T21:13:32.491Z,19.97
2023-04-21T21:16:21.008Z,19.87
2023-04-21T21:19:10.023Z,20.27
2023-04-21T21:21:58.423Z,21.03
2023-04-21T21:24:46.825Z,21.17
2023-04-21T21:27:36.626Z,20.57
2023-04-21T21:30:25.050Z,20.43
2023-04-21T21:33:13.526Z,21.40
2023-04-21T21:36:01.968Z,20.60
2023-04-21T21:38:50.397Z,20.53
2023-04-21T21:41:39.753Z,21.20
2023-04-21T21:44:29.580Z,20.87
2023-04-21T21:47:18.223Z,20.77
2023-04-21T21:50:07.710Z,20.70
2023-04-21T21:52:56.148Z,20.30
2023-04-21T21:55:44.615Z,21.60
2023-04-21T21:58:33.100Z,20.70
2023-04-21T22:01:23.100Z,20.17
2023-04-21T22:04:11.679Z,20.20
2023-04-21T22:07:00.179Z,20.20
2023-04-21T22:09:48.613Z,20.37
2023-04-21T22:12:37.199Z,20.57
2023-04-21T22:15:25.586Z,21.87
2023-04-21T22:18:18.372Z,20.67
2023-04-21T22:21:06.935Z,20.37
2023-04-21T22:23:55.445Z,20.00
2023-04-21T22:26:44.142Z,19.97
2023-04-21T22:29:32.560Z,20.17
2023-04-21T22:32:20.981Z,21.70
2023-04-21T22:35:10.974Z,21.10
2023-04-21T22:37:59.356Z,20.73
2023-04-21T22:40:48.061Z,20.80
2023-04-21T22:43:36.476Z,19.80
2023-04-21T22:46:25.026Z,19.80
2023-04-21T22:49:14.284Z,20.30
2023-04-21T22:52:04.078Z,20.10
2023-04-21T22:54:52.435Z,20.43
2023-04-21T22:57:40.939Z,20.10
2023-04-21T23:00:29.323Z,20.20
2023-04-21T23:03:18.022Z,20.17
2023-04-21T23:06:06.970Z,20.17
2023-04-21T23:08:56.703Z,22.43
2023-04-21T23:11:45.102Z,19.47
2023-04-21T23:14:33.462Z,19.90
2023-04-21T23:17:22.168Z,21.10
2023-04-21T23:20:11.599Z,20.20
2023-04-21T23:22:59.994Z,19.27
2023-04-21T23:25:49.777Z,21.20
2023-04-21T23:28:38.278Z,19.17
2023-04-21T23:31:26.994Z,19.73
2023-04-21T23:34:15.792Z,19.90
2023-04-21T23:37:04.159Z,21.20
2023-04-21T23:39:52.528Z,20.07
2023-04-21T23:42:42.312Z,20.13
2023-04-21T23:45:36.055Z,20.37
2023-04-21T23:48:24.482Z,21.17
2023-04-21T23:51:13.018Z,19.73
2023-04-21T23:54:01.698Z,19.50
2023-04-21T23:56:50.080Z,21.60
2023-04-21T23:59:40.176Z,19.63
